Cruise inventory

Prince Madog ISIS40

Cruise summary report

Cruise Info. 
Ship name (ship code)Prince Madog (74PD)
Cruise identifierISIS40
Cruise period1985-03-25 — 1985-03-28
StatusCompleted
Port of departureMenai Bridge, United Kingdom
Port of returnMenai Bridge, United Kingdom
PurposeResearch
ObjectivesSurvey cruise contributing to research directed toward an understanding of how the physics of the Irish Sea and surrounding regions (Celtic Sea, St, George's Channel, North Channel and Clyde Sea) determined biogeochemical processes and sediment transport.
Chief scientistJuan Brown (University of Wales, Bangor School of Ocean Sciences)
ProjectInterdisciplinary Study of the Irish Sea
Ocean/sea areas 
GeneralIrish Sea and St. George's Channel
Measurements 
Physical oceanography 
Surface measurements underway (T,S)
Water bottle stationsQuantity: number of stations = 22
Description: surface only
CTD stationsQuantity: number of stations = 60
Description: disc
Transparency (eg transmissometer)
Optics (eg underwater light levels)Quantity: 20
Description: disc,irradiance meter
Biology and fisheries 
Phytoplankton pigs (eg chlorophyll, fluorescence)Quantity: 60
Dissolved organic matter (inc DOC)Quantity: 60
SestonQuantity: 60
Meteorology 
Incident radiation
Data held at BODC 
Series/Profiles 
55  CTD/STD cast
Electrical conductivity of the water column
Vertical spatial coordinates
Salinity of the water column
Temperature of the water column
Electrical conductivity of the water column
Vertical spatial coordinates
Salinity of the water column
Temperature of the water column

BODC idDate/TimeLocationDoc.
2862721985-03-27 11:25 53° 22' 0" N  3° 30' 0" W  View metadata report for BODC series reference number 286272
2862841985-03-27 12:19 53° 22' 0" N  3° 19' 59" W  View metadata report for BODC series reference number 286284
2862961985-03-27 15:29 53° 22' 0" N  3° 13' 59" W  View metadata report for BODC series reference number 286296
2863031985-03-27 16:18 53° 25' 29" N  3° 16' 0" W  View metadata report for BODC series reference number 286303
2863151985-03-27 18:30 53° 30' 0" N  3° 15' 0" W  View metadata report for BODC series reference number 286315
2863271985-03-27 19:01 53° 34' 59" N  3° 15' 0" W  View metadata report for BODC series reference number 286327
2863391985-03-27 19:45 53° 40' 0" N  3° 15' 0" W  View metadata report for BODC series reference number 286339
2863401985-03-27 20:35 53° 45' 0" N  3° 15' 0" W  View metadata report for BODC series reference number 286340
2863521985-03-27 21:28 53° 49' 59" N  3° 19' 59" W  View metadata report for BODC series reference number 286352
2863641985-03-27 22:29 53° 55' 0" N  3° 19' 59" W  View metadata report for BODC series reference number 286364
2863761985-03-27 23:35 53° 55' 0" N  3° 30' 0" W  View metadata report for BODC series reference number 286376
2863881985-03-28 00:22 53° 49' 59" N  3° 30' 0" W  View metadata report for BODC series reference number 286388
2864071985-03-28 02:22 53° 49' 59" N  3° 40' 0" W  View metadata report for BODC series reference number 286407
2864191985-03-25 18:06 53° 40' 0" N  4° 10' 0" W  View metadata report for BODC series reference number 286419
2864201985-03-25 18:55 53° 45' 0" N  4° 10' 0" W  View metadata report for BODC series reference number 286420
2864321985-03-25 20:17 53° 45' 0" N  4° 0' 0" W  View metadata report for BODC series reference number 286432
2864441985-03-25 21:05 53° 45' 0" N  3° 49' 59" W  View metadata report for BODC series reference number 286444
2864561985-03-25 21:51 53° 45' 0" N  3° 40' 0" W  View metadata report for BODC series reference number 286456
2864681985-03-25 22:36 53° 45' 0" N  3° 30' 0" W  View metadata report for BODC series reference number 286468
2862111985-03-25 15:35 53° 30' 0" N  4° 10' 0" W  View metadata report for BODC series reference number 286211
2862231985-03-26 11:45 53° 25' 0" N  3° 19' 59" W  View metadata report for BODC series reference number 286223
2862351985-03-27 04:57 53° 22' 30" N  4° 0' 0" W  View metadata report for BODC series reference number 286235
2862471985-03-27 05:48 53° 19' 59" N  3° 55' 0" W  View metadata report for BODC series reference number 286247
2862591985-03-27 08:20 53° 22' 30" N  3° 49' 59" W  View metadata report for BODC series reference number 286259
2862601985-03-27 09:18 53° 22' 0" N  3° 42' 0" W  View metadata report for BODC series reference number 286260
2858711985-03-25 23:28 53° 45' 0" N  3° 19' 59" W  View metadata report for BODC series reference number 285871
2858831985-03-26 00:14 53° 40' 0" N  3° 19' 59" W  View metadata report for BODC series reference number 285883
2858951985-03-26 01:10 53° 40' 0" N  3° 30' 0" W  View metadata report for BODC series reference number 285895
2859021985-03-26 02:03 53° 40' 0" N  3° 40' 0" W  View metadata report for BODC series reference number 285902
2859141985-03-26 02:54 53° 40' 0" N  3° 49' 59" W  View metadata report for BODC series reference number 285914
2859261985-03-26 03:39 53° 40' 0" N  4° 0' 0" W  View metadata report for BODC series reference number 285926
2859381985-03-26 04:30 53° 34' 59" N  4° 0' 0" W  View metadata report for BODC series reference number 285938
2859511985-03-26 05:43 53° 34' 59" N  3° 49' 59" W  View metadata report for BODC series reference number 285951
2859631985-03-26 06:51 53° 34' 59" N  3° 40' 0" W  View metadata report for BODC series reference number 285963
2859751985-03-26 07:59 53° 34' 59" N  3° 30' 0" W  View metadata report for BODC series reference number 285975
2859871985-03-25 13:04 53° 25' 0" N  4° 10' 0" W  View metadata report for BODC series reference number 285987
2859991985-03-25 14:52 53° 25' 0" N  4° 10' 0" W  View metadata report for BODC series reference number 285999
2860021985-03-26 09:17 53° 34' 59" N  3° 19' 59" W  View metadata report for BODC series reference number 286002
2860141985-03-26 10:28 53° 30' 0" N  3° 19' 59" W  View metadata report for BODC series reference number 286014
2860261985-03-26 13:06 53° 30' 0" N  3° 30' 0" W  View metadata report for BODC series reference number 286026
2860381985-03-26 14:27 53° 30' 0" N  3° 40' 0" W  View metadata report for BODC series reference number 286038
2860511985-03-26 15:33 53° 30' 0" N  3° 49' 59" W  View metadata report for BODC series reference number 286051
2860631985-03-26 17:06 53° 30' 0" N  4° 0' 0" W  View metadata report for BODC series reference number 286063
2860751985-03-26 17:54 53° 25' 0" N  4° 0' 0" W  View metadata report for BODC series reference number 286075
2860871985-03-26 18:53 53° 25' 0" N  3° 49' 59" W  View metadata report for BODC series reference number 286087
2860991985-03-26 19:54 53° 25' 0" N  3° 40' 0" W  View metadata report for BODC series reference number 286099
2861061985-03-26 21:19 53° 25' 0" N  3° 25' 0" W  View metadata report for BODC series reference number 286106
2861181985-03-26 22:05 53° 30' 0" N  3° 25' 0" W  View metadata report for BODC series reference number 286118
2861311985-03-26 20:53 53° 25' 0" N  3° 30' 0" W  View metadata report for BODC series reference number 286131
2861431985-03-26 22:50 53° 34' 59" N  3° 25' 0" W  View metadata report for BODC series reference number 286143
2861551985-03-26 23:46 53° 40' 0" N  3° 25' 0" W  View metadata report for BODC series reference number 286155
2861671985-03-27 00:45 53° 40' 0" N  3° 34' 59" W  View metadata report for BODC series reference number 286167
2861791985-03-27 01:42 53° 34' 59" N  3° 34' 59" W  View metadata report for BODC series reference number 286179
2861801985-03-27 02:23 53° 30' 0" N  3° 34' 59" W  View metadata report for BODC series reference number 286180
2861921985-03-27 03:17 53° 25' 0" N  3° 34' 59" W  View metadata report for BODC series reference number 286192